createdAt,value
2018-09-11T00:02:15.691Z,11.50
2018-09-11T00:04:45.728Z,11.40
2018-09-11T00:07:15.741Z,11.40
2018-09-11T00:09:45.335Z,11.50
2018-09-11T00:12:14.851Z,11.60
2018-09-11T00:14:44.395Z,11.60
2018-09-11T00:17:14.530Z,11.60
2018-09-11T00:19:43.981Z,11.50
2018-09-11T00:22:13.461Z,11.60
2018-09-11T00:24:43.105Z,11.60
2018-09-11T00:27:12.503Z,11.60
2018-09-11T00:29:41.983Z,11.60
2018-09-11T00:32:11.616Z,11.60
2018-09-11T00:34:41.048Z,11.60
2018-09-11T00:37:10.423Z,11.60
2018-09-11T00:39:39.930Z,11.60
2018-09-11T00:42:09.474Z,11.60
2018-09-11T00:44:38.976Z,11.60
2018-09-11T00:47:08.809Z,11.60
2018-09-11T00:49:38.795Z,11.50
2018-09-11T00:52:08.250Z,11.50
2018-09-11T00:54:38.532Z,11.40
2018-09-11T00:57:08.025Z,11.30
2018-09-11T00:59:37.245Z,11.20
2018-09-11T01:02:06.912Z,11.20
2018-09-11T01:04:36.919Z,11.20
2018-09-11T01:07:06.487Z,11.20
2018-09-11T01:09:35.725Z,11.30
2018-09-11T01:12:05.285Z,11.30
2018-09-11T01:14:34.562Z,11.20
2018-09-11T01:17:04.174Z,11.20
2018-09-11T01:19:33.818Z,11.30
2018-09-11T01:22:03.437Z,11.40
2018-09-11T01:24:32.780Z,11.40
2018-09-11T01:27:02.269Z,11.30
2018-09-11T01:29:32.368Z,11.30
2018-09-11T01:32:01.833Z,11.30
2018-09-11T01:34:31.482Z,11.20
2018-09-11T01:37:01.307Z,11.10
2018-09-11T01:39:30.957Z,11.10
2018-09-11T01:42:00.634Z,11.00
2018-09-11T01:44:30.094Z,10.90
2018-09-11T01:47:00.907Z,10.80
2018-09-11T01:49:30.450Z,10.70
2018-09-11T01:51:59.918Z,10.70
2018-09-11T01:54:29.591Z,10.70
2018-09-11T01:56:59.401Z,10.60
2018-09-11T01:59:28.976Z,10.60
2018-09-11T02:01:58.385Z,10.50
2018-09-11T02:04:27.789Z,10.50
2018-09-11T02:06:57.342Z,10.40
2018-09-11T02:09:26.883Z,10.40
2018-09-11T02:11:56.295Z,10.30
2018-09-11T02:14:26.238Z,10.30
2018-09-11T02:16:56.548Z,10.20
2018-09-11T02:19:26.114Z,10.30
2018-09-11T02:21:55.522Z,10.40
2018-09-11T02:24:25.099Z,10.40
2018-09-11T02:26:54.657Z,10.30
2018-09-11T02:29:24.162Z,10.20
2018-09-11T02:31:54.480Z,10.10
2018-09-11T02:34:24.931Z,10.00
2018-09-11T02:36:54.609Z,10.00
2018-09-11T02:39:24.198Z,10.10
2018-09-11T02:42:00.674Z,10.20
2018-09-11T02:44:30.608Z,10.20
2018-09-11T02:47:00.747Z,10.10
2018-09-11T02:49:30.540Z,10.00
2018-09-11T02:52:01.386Z,10.00
2018-09-11T02:54:30.901Z,10.00
2018-09-11T02:57:00.402Z,9.90
2018-09-11T02:59:29.974Z,9.80
2018-09-11T03:01:59.441Z,9.70
2018-09-11T03:04:29.034Z,9.70
2018-09-11T03:07:04.739Z,9.80
2018-09-11T03:09:33.979Z,9.70
2018-09-11T03:12:03.539Z,9.60
2018-09-11T03:14:33.600Z,9.50
2018-09-11T03:17:03.145Z,9.40
2018-09-11T03:19:32.483Z,9.40
2018-09-11T03:22:02.859Z,9.40
2018-09-11T03:24:32.630Z,9.40
2018-09-11T03:27:02.101Z,9.30
2018-09-11T03:29:31.648Z,9.30
2018-09-11T03:32:01.145Z,9.30
2018-09-11T03:34:30.832Z,9.20
2018-09-11T03:37:00.856Z,9.20
2018-09-11T03:39:30.376Z,9.20
2018-09-11T03:41:59.929Z,9.20
2018-09-11T03:44:29.360Z,9.20
2018-09-11T03:46:58.752Z,9.20
2018-09-11T03:49:28.689Z,9.20
2018-09-11T03:51:59.170Z,9.10
2018-09-11T03:54:28.890Z,9.10
2018-09-11T03:56:58.412Z,9.10
2018-09-11T03:59:27.960Z,9.00
2018-09-11T04:01:57.393Z,9.00
2018-09-11T04:04:26.737Z,8.90
2018-09-11T04:06:56.164Z,8.80
2018-09-11T04:09:25.691Z,8.80
2018-09-11T04:11:55.159Z,8.70
2018-09-11T04:14:24.787Z,8.60
2018-09-11T04:16:54.196Z,8.60
2018-09-11T04:19:23.701Z,8.60
2018-09-11T04:21:53.227Z,8.50
2018-09-11T04:24:22.765Z,8.50
2018-09-11T04:26:52.952Z,8.50
2018-09-11T04:29:22.399Z,8.50
2018-09-11T04:31:51.968Z,8.50
2018-09-11T04:34:21.730Z,8.60
2018-09-11T04:36:51.213Z,8.60
2018-09-11T04:39:20.892Z,8.50
2018-09-11T04:41:50.531Z,8.50
2018-09-11T04:44:19.995Z,8.50
2018-09-11T04:46:49.527Z,8.50
2018-09-11T04:49:19.852Z,8.40
2018-09-11T04:51:49.537Z,8.30
2018-09-11T04:54:18.928Z,8.30
2018-09-11T04:56:48.320Z,8.30
2018-09-11T04:59:17.955Z,8.40
2018-09-11T05:01:47.479Z,8.50
2018-09-11T05:04:16.922Z,8.60
2018-09-11T05:06:46.278Z,8.70
2018-09-11T05:09:15.683Z,8.70
2018-09-11T05:11:45.173Z,8.70
2018-09-11T05:14:14.626Z,8.70
2018-09-11T05:16:44.190Z,8.70
2018-09-11T05:19:13.619Z,8.80
2018-09-11T05:21:43.052Z,8.80
2018-09-11T05:24:12.255Z,8.90
2018-09-11T05:26:41.605Z,8.90
2018-09-11T05:29:11.051Z,9.00
2018-09-11T05:31:40.561Z,9.10
2018-09-11T05:34:09.729Z,9.10
2018-09-11T05:36:39.088Z,9.30
2018-09-11T05:39:09.662Z,9.40
2018-09-11T05:41:38.923Z,9.50
2018-09-11T05:44:08.432Z,9.60
2018-09-11T05:46:38.743Z,10.20
2018-09-11T05:49:08.176Z,10.90
2018-09-11T05:51:37.654Z,11.80
2018-09-11T05:54:06.985Z,12.30
2018-09-11T05:56:36.340Z,12.90
2018-09-11T05:59:05.288Z,13.50
2018-09-11T06:01:35.044Z,14.10
2018-09-11T06:04:04.446Z,14.70
2018-09-11T06:06:33.970Z,15.10
2018-09-11T06:09:03.237Z,15.50
2018-09-11T06:11:32.622Z,15.80
2018-09-11T06:14:02.285Z,16.20
2018-09-11T06:16:31.900Z,16.60
2018-09-11T06:19:01.414Z,16.80
2018-09-11T06:21:30.925Z,17.20
2018-09-11T06:24:00.322Z,17.50
2018-09-11T06:26:29.526Z,17.50
2018-09-11T06:28:58.911Z,17.50
2018-09-11T06:31:28.481Z,17.80
2018-09-11T06:33:57.760Z,17.80
2018-09-11T06:36:27.217Z,17.80
2018-09-11T06:38:56.573Z,17.90
2018-09-11T06:41:25.765Z,17.90
2018-09-11T06:43:55.341Z,17.90
2018-09-11T06:46:25.352Z,17.80
2018-09-11T06:48:54.886Z,17.60
2018-09-11T06:51:24.044Z,17.60
2018-09-11T06:53:56.050Z,17.80
2018-09-11T06:56:25.343Z,17.60
2018-09-11T06:58:54.765Z,18.20
2018-09-11T07:01:23.945Z,19.10
2018-09-11T07:03:54.355Z,20.00
2018-09-11T07:06:23.603Z,20.50
2018-09-11T07:08:52.943Z,21.10
2018-09-11T07:11:22.322Z,21.70
2018-09-11T07:13:52.157Z,22.40
2018-09-11T07:16:21.480Z,23.20
2018-09-11T07:18:50.987Z,23.90
2018-09-11T07:21:20.359Z,24.10
2018-09-11T07:23:49.761Z,24.20
2018-09-11T07:26:19.191Z,23.50
2018-09-11T07:28:48.822Z,24.30
2018-09-11T07:31:18.242Z,24.20
2018-09-11T07:33:47.840Z,24.20
2018-09-11T07:36:17.237Z,22.10
2018-09-11T07:38:46.775Z,22.60
2018-09-11T07:41:16.170Z,23.20
2018-09-11T07:43:45.685Z,23.40
2018-09-11T07:46:14.935Z,23.50
2018-09-11T07:48:44.403Z,23.50
2018-09-11T07:51:13.796Z,23.90
2018-09-11T07:53:43.113Z,24.80
2018-09-11T07:56:12.708Z,24.50
2018-09-11T07:58:42.248Z,25.10
2018-09-11T08:01:11.559Z,24.20
2018-09-11T08:03:42.524Z,23.20
2018-09-11T08:06:11.921Z,24.20
2018-09-11T08:08:41.446Z,24.30
2018-09-11T08:11:11.272Z,24.40
2018-09-11T08:13:40.614Z,26.10
2018-09-11T08:16:10.098Z,27.30
2018-09-11T08:18:39.503Z,27.40
2018-09-11T08:21:09.015Z,27.60
2018-09-11T08:23:38.250Z,28.30
2018-09-11T08:26:07.648Z,28.40
2018-09-11T08:28:37.034Z,28.10
2018-09-11T08:31:07.355Z,27.90
2018-09-11T08:33:37.493Z,28.10
2018-09-11T08:36:06.868Z,29.10
2018-09-11T08:38:36.298Z,29.00
2018-09-11T08:41:05.692Z,27.70
2018-09-11T08:43:35.056Z,24.50
2018-09-11T08:46:04.449Z,23.70
2018-09-11T08:48:33.846Z,24.40
2018-09-11T08:51:03.257Z,25.20
2018-09-11T08:53:32.773Z,25.60
2018-09-11T08:56:02.338Z,24.90
2018-09-11T08:58:31.740Z,24.70
2018-09-11T09:01:01.307Z,23.90
2018-09-11T09:03:30.739Z,25.30
2018-09-11T09:06:00.036Z,26.40
2018-09-11T09:08:29.452Z,25.20
2018-09-11T09:10:58.951Z,24.20
2018-09-11T09:13:28.123Z,24.50
2018-09-11T09:15:57.518Z,24.10
2018-09-11T09:18:26.938Z,23.40
2018-09-11T09:20:56.138Z,24.60
2018-09-11T09:23:25.613Z,23.60
2018-09-11T09:25:55.114Z,23.80
2018-09-11T09:28:24.742Z,24.20
2018-09-11T09:30:54.482Z,25.50
2018-09-11T09:33:24.060Z,26.50
2018-09-11T09:35:54.473Z,27.00
2018-09-11T09:38:25.899Z,25.40
2018-09-11T09:40:55.491Z,24.80
2018-09-11T09:43:25.043Z,26.50
2018-09-11T09:45:55.462Z,26.30
2018-09-11T09:48:32.424Z,26.20
2018-09-11T09:51:01.710Z,24.80
2018-09-11T09:53:30.976Z,24.80
2018-09-11T09:56:00.832Z,25.00
2018-09-11T09:58:30.369Z,25.40
2018-09-11T10:01:04.922Z,26.10
2018-09-11T10:03:34.185Z,25.80
2018-09-11T10:06:03.525Z,25.30
2018-09-11T10:08:32.936Z,25.10
2018-09-11T10:11:02.358Z,25.00
2018-09-11T10:13:33.794Z,24.60
2018-09-11T10:16:03.156Z,25.40
2018-09-11T10:18:32.620Z,25.20
2018-09-11T10:21:02.668Z,25.00
2018-09-11T10:23:31.934Z,25.10
2018-09-11T10:26:01.563Z,25.40
2018-09-11T10:28:30.824Z,25.60
2018-09-11T10:31:00.500Z,24.80
2018-09-11T10:33:29.980Z,24.40
2018-09-11T10:35:59.439Z,24.30
2018-09-11T10:38:29.035Z,24.40
2018-09-11T10:40:59.179Z,23.90
2018-09-11T10:43:28.691Z,24.40
2018-09-11T10:45:58.190Z,24.50
2018-09-11T10:48:27.475Z,24.60
2018-09-11T10:50:56.642Z,24.90
2018-09-11T10:53:26.001Z,24.80
2018-09-11T10:55:55.181Z,24.30
2018-09-11T10:58:24.412Z,24.40
2018-09-11T11:00:54.489Z,24.40
2018-09-11T11:03:23.877Z,24.20
2018-09-11T11:05:53.385Z,24.20
2018-09-11T11:08:22.545Z,24.40
2018-09-11T11:10:52.162Z,24.90
2018-09-11T11:13:23.011Z,25.80
2018-09-11T11:15:53.819Z,25.90
2018-09-11T11:18:23.278Z,25.40
2018-09-11T11:20:52.431Z,25.60
2018-09-11T11:23:22.964Z,25.40
2018-09-11T11:25:53.126Z,25.40
2018-09-11T11:28:22.515Z,25.70
2018-09-11T11:30:52.863Z,26.20
2018-09-11T11:33:22.535Z,26.50
2018-09-11T11:35:52.457Z,25.60
2018-09-11T11:38:21.475Z,26.10
2018-09-11T11:40:50.933Z,25.60
2018-09-11T11:43:21.160Z,26.50
2018-09-11T11:45:54.181Z,26.20
2018-09-11T11:48:24.793Z,25.90
2018-09-11T11:50:55.823Z,26.00
2018-09-11T11:53:25.270Z,26.60
2018-09-11T11:58:31.213Z,26.30
2018-09-11T12:01:01.585Z,26.70
2018-09-11T12:03:31.398Z,26.00
2018-09-11T12:06:02.080Z,25.90
2018-09-11T12:08:32.566Z,25.80
2018-09-11T12:11:01.686Z,27.20
2018-09-11T12:13:31.059Z,27.50
2018-09-11T12:16:00.448Z,27.40
2018-09-11T12:18:29.939Z,27.30
2018-09-11T12:20:59.295Z,27.90
2018-09-11T12:23:28.602Z,28.20
2018-09-11T12:25:57.923Z,27.00
2018-09-11T12:28:28.183Z,26.80
2018-09-11T12:30:57.537Z,27.20
2018-09-11T12:33:31.460Z,26.80
2018-09-11T12:36:02.008Z,26.50
2018-09-11T12:38:31.287Z,26.60
2018-09-11T12:41:07.113Z,26.90
2018-09-11T12:43:36.620Z,27.50
2018-09-11T12:46:06.196Z,28.10
2018-09-11T12:48:35.587Z,28.80
2018-09-11T12:51:04.797Z,29.20
2018-09-11T12:53:34.209Z,28.80
2018-09-11T12:56:03.319Z,28.30
2018-09-11T12:58:32.526Z,27.70
2018-09-11T13:01:01.762Z,27.40
2018-09-11T13:03:31.145Z,27.40
2018-09-11T13:06:03.192Z,27.30
2018-09-11T13:08:32.567Z,27.30
2018-09-11T13:11:01.674Z,27.60
2018-09-11T13:13:31.166Z,27.90
2018-09-11T13:16:00.505Z,29.00
2018-09-11T13:18:31.154Z,29.30
2018-09-11T13:21:00.809Z,28.50
2018-09-11T13:23:31.074Z,27.40
2018-09-11T13:26:00.310Z,27.40
2018-09-11T13:28:30.172Z,26.80
2018-09-11T13:30:59.325Z,26.80
2018-09-11T13:33:28.673Z,27.60
2018-09-11T13:36:04.411Z,28.10
2018-09-11T13:38:33.776Z,29.20
2018-09-11T13:41:02.876Z,29.90
2018-09-11T13:43:32.276Z,30.30
2018-09-11T13:46:02.746Z,28.90
2018-09-11T13:48:32.311Z,27.90
2018-09-11T13:51:01.977Z,27.70
2018-09-11T13:53:35.965Z,27.80
2018-09-11T13:56:05.210Z,28.90
2018-09-11T13:58:34.336Z,29.80
2018-09-11T14:01:03.535Z,28.90
2018-09-11T14:03:34.522Z,29.30
2018-09-11T14:06:04.630Z,29.40
2018-09-11T14:08:41.573Z,27.90
2018-09-11T14:11:11.561Z,28.00
2018-09-11T14:16:23.462Z,27.80
2018-09-11T14:18:57.283Z,27.70
2018-09-11T14:21:27.610Z,27.80
2018-09-11T14:23:57.324Z,27.70
2018-09-11T14:26:26.862Z,27.70
2018-09-11T14:31:32.291Z,28.20
2018-09-11T14:34:04.152Z,27.60
2018-09-11T14:36:33.177Z,28.00
2018-09-11T14:39:06.205Z,28.40
2018-09-11T14:41:35.135Z,29.00
2018-09-11T14:44:09.604Z,28.80
2018-09-11T14:46:41.307Z,28.10
2018-09-11T14:49:10.710Z,28.00
2018-09-11T14:51:40.006Z,27.90
2018-09-11T14:54:10.256Z,27.50
2018-09-11T14:56:39.808Z,27.60
2018-09-11T14:59:10.909Z,27.30
2018-09-11T15:01:40.692Z,27.20
2018-09-11T15:04:10.235Z,27.10
2018-09-11T15:06:39.713Z,27.40
2018-09-11T15:09:10.269Z,27.70
2018-09-11T15:11:40.189Z,27.40
2018-09-11T15:14:09.850Z,27.30
2018-09-11T15:16:39.094Z,27.10
2018-09-11T15:19:08.520Z,27.20
2018-09-11T15:21:38.376Z,27.00
2018-09-11T15:24:09.896Z,26.80
2018-09-11T15:26:39.438Z,27.20
2018-09-11T15:29:09.549Z,27.20
2018-09-11T15:31:39.466Z,27.40
2018-09-11T15:34:09.176Z,27.20
2018-09-11T15:36:38.348Z,27.30
2018-09-11T15:39:10.165Z,27.20
2018-09-11T15:41:39.634Z,27.10
2018-09-11T15:44:10.228Z,27.10
2018-09-11T15:46:39.631Z,27.30
2018-09-11T15:49:09.117Z,27.70
2018-09-11T15:51:38.581Z,27.60
2018-09-11T15:54:08.113Z,27.40
2018-09-11T15:56:38.278Z,27.10
2018-09-11T16:01:43.247Z,27.30
2018-09-11T16:04:12.714Z,27.20
2018-09-11T16:06:42.138Z,27.20
2018-09-11T16:09:13.473Z,27.50
2018-09-11T16:11:43.304Z,27.50
2018-09-11T16:14:12.443Z,27.60
2018-09-11T16:16:42.217Z,27.50
2018-09-11T16:19:11.390Z,27.40
2018-09-11T16:21:40.844Z,27.10
2018-09-11T16:24:10.314Z,27.10
2018-09-11T16:26:40.042Z,26.80
2018-09-11T16:29:09.976Z,26.80
2018-09-11T16:31:39.460Z,26.60
2018-09-11T16:34:10.434Z,26.30
2018-09-11T16:36:39.787Z,26.20
2018-09-11T16:39:11.483Z,26.20
2018-09-11T16:41:42.092Z,26.20
2018-09-11T16:44:11.597Z,26.10
2018-09-11T16:46:41.472Z,26.00
2018-09-11T16:49:11.637Z,26.00
2018-09-11T16:51:41.788Z,25.90
2018-09-11T16:54:12.926Z,25.90
2018-09-11T16:56:43.503Z,25.80
2018-09-11T16:59:13.099Z,25.50
2018-09-11T17:01:43.113Z,25.40
2018-09-11T17:04:13.376Z,25.20
2018-09-11T17:06:43.125Z,25.10
2018-09-11T17:09:12.388Z,25.00
2018-09-11T17:11:41.702Z,24.80
2018-09-11T17:14:11.073Z,24.70
2018-09-11T17:16:40.532Z,24.70
2018-09-11T17:19:10.324Z,24.70
2018-09-11T17:21:41.456Z,24.60
2018-09-11T17:24:10.741Z,24.40
2018-09-11T17:26:40.281Z,24.10
2018-09-11T17:29:09.609Z,23.90
2018-09-11T17:31:39.732Z,23.40
2018-09-11T17:34:09.171Z,22.90
2018-09-11T17:36:38.677Z,22.50
2018-09-11T17:39:10.621Z,22.00
2018-09-11T17:41:41.423Z,21.40
2018-09-11T17:44:11.012Z,20.80
2018-09-11T17:46:40.352Z,20.20
2018-09-11T17:49:09.880Z,19.80
2018-09-11T17:51:39.308Z,19.50
2018-09-11T17:54:08.770Z,19.40
2018-09-11T17:56:40.681Z,19.30
2018-09-11T17:59:10.174Z,19.00
2018-09-11T18:01:42.368Z,18.80
2018-09-11T18:04:11.824Z,18.80
2018-09-11T18:06:41.046Z,18.60
2018-09-11T18:09:10.897Z,18.50
2018-09-11T18:11:40.252Z,18.40
2018-09-11T18:14:10.129Z,18.30
2018-09-11T18:16:39.356Z,18.10
2018-09-11T18:19:08.919Z,18.00
2018-09-11T18:21:39.070Z,18.00
2018-09-11T18:24:09.094Z,17.80
2018-09-11T18:26:39.334Z,17.60
2018-09-11T18:29:09.214Z,17.20
2018-09-11T18:31:38.519Z,17.00
2018-09-11T18:34:08.891Z,16.90
2018-09-11T18:36:38.960Z,16.90
2018-09-11T18:39:09.977Z,16.80
2018-09-11T18:41:39.914Z,16.80
2018-09-11T18:44:09.890Z,16.80
2018-09-11T18:46:39.420Z,16.70
2018-09-11T18:49:09.283Z,16.50
2018-09-11T18:51:41.176Z,16.20
2018-09-11T18:54:11.368Z,16.00
2018-09-11T18:56:41.390Z,15.80
2018-09-11T18:59:10.792Z,15.60
2018-09-11T19:01:40.214Z,15.50
2018-09-11T19:04:10.377Z,15.40
2018-09-11T19:06:39.864Z,15.40
2018-09-11T19:09:10.734Z,15.30
2018-09-11T19:11:40.220Z,15.20
2018-09-11T19:14:10.532Z,15.10
2018-09-11T19:16:40.402Z,15.00
2018-09-11T19:19:10.467Z,15.00
2018-09-11T19:21:39.950Z,15.10
2018-09-11T19:24:09.456Z,15.10
2018-09-11T19:26:38.728Z,15.10
2018-09-11T19:29:08.022Z,15.10
2018-09-11T19:31:37.559Z,15.00
2018-09-11T19:34:07.009Z,14.80
2018-09-11T19:36:37.146Z,14.60
2018-09-11T19:39:09.220Z,14.50
2018-09-11T19:41:39.301Z,14.50
2018-09-11T19:44:08.482Z,14.40
2018-09-11T19:46:38.793Z,14.40
2018-09-11T19:51:53.247Z,14.10
2018-09-11T19:54:22.649Z,13.90
2018-09-11T19:56:52.086Z,13.70
2018-09-11T19:59:21.566Z,13.60
2018-09-11T20:01:50.659Z,13.60
2018-09-11T20:04:20.818Z,13.60
2018-09-11T20:06:50.017Z,13.50
2018-09-11T20:09:19.275Z,13.40
2018-09-11T20:11:48.670Z,13.40
2018-09-11T20:14:18.147Z,13.60
2018-09-11T20:16:47.419Z,13.60
2018-09-11T20:19:17.933Z,13.50
2018-09-11T20:21:47.445Z,13.30
2018-09-11T20:24:17.289Z,13.20
2018-09-11T20:26:48.097Z,13.20
2018-09-11T20:29:17.509Z,13.10
2018-09-11T20:31:47.073Z,13.00
2018-09-11T20:34:16.583Z,13.00
2018-09-11T20:36:46.204Z,12.90
2018-09-11T20:39:16.413Z,12.90
2018-09-11T20:41:45.816Z,12.90
2018-09-11T20:44:15.261Z,12.90
2018-09-11T20:46:44.554Z,12.80
2018-09-11T20:49:14.142Z,12.70
2018-09-11T20:51:43.400Z,12.50
2018-09-11T20:54:12.841Z,12.40
2018-09-11T20:56:42.459Z,12.30
2018-09-11T20:59:11.918Z,12.30
2018-09-11T21:01:41.101Z,12.30
2018-09-11T21:04:10.438Z,12.30
2018-09-11T21:06:39.637Z,12.40
2018-09-11T21:09:09.869Z,12.50
2018-09-11T21:11:39.357Z,12.40
2018-09-11T21:14:08.858Z,12.30
2018-09-11T21:16:38.280Z,12.20
2018-09-11T21:19:07.613Z,12.20
2018-09-11T21:21:36.927Z,12.00
2018-09-11T21:24:06.387Z,12.00
2018-09-11T21:26:36.574Z,11.90
2018-09-11T21:29:06.009Z,11.90
2018-09-11T21:31:34.988Z,11.90
2018-09-11T21:34:04.280Z,11.80
2018-09-11T21:36:34.553Z,11.70
2018-09-11T21:39:05.398Z,11.70
2018-09-11T21:41:34.846Z,11.60
2018-09-11T21:44:04.947Z,11.50
2018-09-11T21:46:34.623Z,11.50
2018-09-11T21:49:04.577Z,11.40
2018-09-11T21:51:34.473Z,11.40
2018-09-11T21:54:05.260Z,11.40
2018-09-11T21:56:34.455Z,11.40
2018-09-11T21:59:03.808Z,11.30
2018-09-11T22:01:38.326Z,11.30
2018-09-11T22:04:08.347Z,11.20
2018-09-11T22:06:37.592Z,11.10
2018-09-11T22:09:09.257Z,11.10
2018-09-11T22:11:38.703Z,11.10
2018-09-11T22:14:08.682Z,11.10
2018-09-11T22:16:38.392Z,11.10
2018-09-11T22:19:08.339Z,11.10
2018-09-11T22:21:38.208Z,11.10
2018-09-11T22:24:07.463Z,11.00
2018-09-11T22:26:36.846Z,10.90
2018-09-11T22:29:07.341Z,10.80
2018-09-11T22:31:36.478Z,10.70
2018-09-11T22:34:05.968Z,10.70
2018-09-11T22:36:36.168Z,10.60
2018-09-11T22:39:07.526Z,10.50
2018-09-11T22:41:36.576Z,10.50
2018-09-11T22:44:06.046Z,10.50
2018-09-11T22:46:35.963Z,10.50
2018-09-11T22:49:05.385Z,10.60
2018-09-11T22:51:35.437Z,10.60
2018-09-11T22:54:04.672Z,10.60
2018-09-11T22:56:34.123Z,10.60
2018-09-11T22:59:04.036Z,10.60
2018-09-11T23:01:33.489Z,10.60
2018-09-11T23:04:05.797Z,10.60
2018-09-11T23:06:36.930Z,10.50
2018-09-11T23:09:08.272Z,10.40
2018-09-11T23:11:37.643Z,10.40
2018-09-11T23:14:07.685Z,10.30
2018-09-11T23:16:38.603Z,10.20
2018-09-11T23:19:08.035Z,10.20
2018-09-11T23:21:37.300Z,10.20
2018-09-11T23:24:06.777Z,10.20
2018-09-11T23:26:36.096Z,10.20
2018-09-11T23:29:05.268Z,10.20
2018-09-11T23:31:34.729Z,10.20
2018-09-11T23:34:03.944Z,10.20
2018-09-11T23:36:33.281Z,10.20
2018-09-11T23:39:02.494Z,10.10
2018-09-11T23:41:32.149Z,10.10
2018-09-11T23:44:01.874Z,10.00
2018-09-11T23:46:31.160Z,10.00
2018-09-11T23:49:00.529Z,10.00
2018-09-11T23:51:30.052Z,10.10
2018-09-11T23:53:59.563Z,10.00
2018-09-11T23:56:31.734Z,10.00
2018-09-11T23:59:01.045Z,9.90
